createdAt,value
2023-03-27T00:01:02.039Z,99.90
2023-03-27T00:02:03.940Z,99.90
2023-03-27T00:03:05.828Z,99.90
2023-03-27T00:04:09.107Z,99.90
2023-03-27T00:05:10.935Z,99.90
2023-03-27T00:06:18.027Z,99.90
2023-03-27T00:07:20.000Z,99.90
2023-03-27T00:08:21.735Z,99.90
2023-03-27T00:09:23.643Z,99.90
2023-03-27T00:10:26.432Z,99.90
2023-03-27T00:11:28.152Z,99.90
2023-03-27T00:12:29.926Z,99.90
2023-03-27T00:13:31.945Z,99.90
2023-03-27T00:14:34.631Z,99.90
2023-03-27T00:15:37.575Z,99.90
2023-03-27T00:16:39.534Z,99.90
2023-03-27T00:17:41.721Z,99.90
2023-03-27T00:18:44.927Z,99.90
2023-03-27T00:19:46.763Z,99.90
2023-03-27T00:20:48.483Z,99.90
2023-03-27T00:21:50.170Z,99.90
2023-03-27T00:22:56.799Z,99.90
2023-03-27T00:24:00.464Z,99.90
2023-03-27T00:25:02.357Z,99.90
2023-03-27T00:26:04.333Z,99.90
2023-03-27T00:27:06.770Z,99.90
2023-03-27T00:28:08.527Z,99.90
2023-03-27T00:29:10.879Z,99.90
2023-03-27T00:30:13.193Z,99.90
2023-03-27T00:31:16.850Z,99.90
2023-03-27T00:32:18.606Z,99.90
2023-03-27T00:33:20.465Z,99.90
2023-03-27T00:34:22.545Z,99.90
2023-03-27T00:35:27.323Z,99.90
2023-03-27T00:36:29.099Z,99.90
2023-03-27T00:37:31.412Z,99.90
2023-03-27T00:38:34.318Z,99.90
2023-03-27T00:39:36.052Z,99.90
2023-03-27T00:40:38.694Z,99.90
2023-03-27T00:41:40.493Z,99.90
2023-03-27T00:42:42.179Z,99.90
2023-03-27T00:43:44.371Z,99.90
2023-03-27T00:44:46.102Z,99.90
2023-03-27T00:45:50.924Z,99.90
2023-03-27T00:46:55.182Z,99.90
2023-03-27T00:48:03.336Z,99.90
2023-03-27T00:49:10.095Z,99.90
2023-03-27T00:50:16.465Z,99.90
2023-03-27T00:51:20.154Z,99.90
2023-03-27T00:52:21.914Z,99.90
2023-03-27T00:53:27.644Z,99.90
2023-03-27T00:54:34.720Z,99.90
2023-03-27T00:55:39.394Z,99.90
2023-03-27T00:56:41.180Z,99.90
2023-03-27T00:57:45.582Z,99.90
2023-03-27T00:58:51.263Z,99.90
2023-03-27T00:59:54.748Z,99.90
2023-03-27T01:00:57.562Z,99.90
2023-03-27T01:02:01.570Z,99.90
2023-03-27T01:03:07.264Z,99.90
2023-03-27T01:04:09.738Z,99.90
2023-03-27T01:05:12.087Z,99.90
2023-03-27T01:06:17.120Z,99.90
2023-03-27T01:07:19.822Z,99.90
2023-03-27T01:08:22.881Z,99.90
2023-03-27T01:09:27.186Z,99.90
2023-03-27T01:10:43.668Z,99.90
2023-03-27T01:12:03.607Z,99.90
2023-03-27T01:13:18.375Z,99.90
2023-03-27T01:14:23.114Z,99.90
2023-03-27T01:16:08.747Z,99.90
2023-03-27T01:17:59.148Z,99.90
2023-03-27T01:19:21.265Z,99.90
2023-03-27T01:20:42.419Z,99.90
2023-03-27T01:21:56.900Z,99.90
2023-03-27T01:23:36.382Z,99.90
2023-03-27T01:25:33.988Z,99.90
2023-03-27T01:27:06.275Z,99.90
2023-03-27T01:28:10.953Z,99.90
2023-03-27T01:29:18.552Z,99.90
2023-03-27T01:30:40.575Z,99.90
2023-03-27T01:32:07.419Z,99.90
2023-03-27T01:33:46.145Z,99.90
2023-03-27T01:35:02.125Z,99.90
2023-03-27T01:36:14.497Z,99.90
2023-03-27T01:37:50.263Z,99.90
2023-03-27T01:39:07.413Z,99.90
2023-03-27T01:40:33.250Z,99.90
2023-03-27T01:41:46.684Z,99.90
2023-03-27T01:42:56.246Z,99.90
2023-03-27T01:44:43.944Z,99.90
2023-03-27T01:45:57.254Z,99.90
2023-03-27T01:47:09.781Z,99.90
2023-03-27T01:48:26.020Z,99.90
2023-03-27T01:49:51.382Z,99.90
2023-03-27T01:51:43.693Z,99.90
2023-03-27T01:52:52.728Z,99.90
2023-03-27T01:54:02.184Z,99.90
2023-03-27T01:55:11.158Z,99.90
2023-03-27T01:56:26.629Z,99.90
2023-03-27T01:57:49.181Z,99.90
2023-03-27T01:58:57.256Z,99.90
2023-03-27T02:00:17.615Z,99.90
2023-03-27T02:01:31.049Z,99.90
2023-03-27T02:02:34.065Z,99.90
2023-03-27T02:03:41.731Z,99.90
2023-03-27T02:04:50.264Z,99.90
2023-03-27T02:06:12.258Z,99.90
2023-03-27T02:07:19.977Z,99.90
2023-03-27T02:08:38.892Z,99.90
2023-03-27T02:09:54.074Z,99.90
2023-03-27T02:10:58.906Z,99.90
2023-03-27T02:12:12.237Z,99.90
2023-03-27T02:13:23.843Z,99.90
2023-03-27T02:14:30.693Z,99.90
2023-03-27T02:15:35.206Z,99.90
2023-03-27T02:16:46.304Z,99.90
2023-03-27T02:18:05.016Z,99.90
2023-03-27T02:19:13.152Z,99.90
2023-03-27T02:20:16.655Z,99.90
2023-03-27T02:21:18.498Z,99.90
2023-03-27T02:22:20.457Z,99.90
2023-03-27T02:23:40.370Z,99.90
2023-03-27T02:24:43.509Z,99.90
2023-03-27T02:25:46.040Z,99.90
2023-03-27T02:26:55.125Z,99.90
2023-03-27T02:28:34.639Z,99.90
2023-03-27T02:29:45.161Z,99.90
2023-03-27T02:31:06.630Z,99.90
2023-03-27T02:32:22.375Z,99.90
2023-03-27T02:33:33.707Z,99.90
2023-03-27T02:35:03.975Z,99.90
2023-03-27T02:36:38.072Z,99.90
2023-03-27T02:37:58.495Z,99.90
2023-03-27T02:39:33.707Z,99.90
2023-03-27T02:40:46.328Z,99.90
2023-03-27T02:41:57.985Z,99.90
2023-03-27T02:43:06.648Z,99.90
2023-03-27T02:44:15.296Z,99.90
2023-03-27T02:45:41.006Z,99.90
2023-03-27T02:46:56.451Z,99.90
2023-03-27T02:48:11.663Z,99.90
2023-03-27T02:49:23.359Z,99.90
2023-03-27T02:50:32.067Z,99.90
2023-03-27T02:52:01.279Z,99.90
2023-03-27T02:53:04.989Z,99.90
2023-03-27T02:54:11.915Z,99.90
2023-03-27T02:55:35.586Z,99.90
2023-03-27T02:56:43.508Z,99.90
2023-03-27T02:57:51.642Z,99.90
2023-03-27T02:58:59.909Z,99.90
2023-03-27T03:00:02.678Z,99.90
2023-03-27T03:01:09.683Z,99.90
2023-03-27T03:02:20.872Z,99.90
2023-03-27T03:03:44.541Z,99.90
2023-03-27T03:04:58.249Z,99.90
2023-03-27T03:06:00.227Z,99.90
2023-03-27T03:07:06.400Z,99.90
2023-03-27T03:08:10.269Z,99.90
2023-03-27T03:09:14.901Z,99.90
2023-03-27T03:10:16.941Z,99.90
2023-03-27T03:11:18.841Z,99.90
2023-03-27T03:12:21.563Z,99.90
2023-03-27T03:13:23.316Z,99.90
2023-03-27T03:14:37.251Z,99.90
2023-03-27T03:15:39.204Z,99.90
2023-03-27T03:16:41.174Z,99.90
2023-03-27T03:17:42.984Z,99.90
2023-03-27T03:18:44.756Z,99.90
2023-03-27T03:19:46.758Z,99.90
2023-03-27T03:20:49.109Z,99.90
2023-03-27T03:21:51.034Z,99.90
2023-03-27T03:22:53.141Z,99.90
2023-03-27T03:23:57.574Z,99.90
2023-03-27T03:25:00.560Z,99.90
2023-03-27T03:26:03.022Z,99.90
2023-03-27T03:27:08.277Z,99.90
2023-03-27T03:28:10.617Z,99.90
2023-03-27T03:29:14.200Z,99.90
2023-03-27T03:30:16.650Z,99.90
2023-03-27T03:31:19.520Z,99.90
2023-03-27T03:32:21.349Z,99.90
2023-03-27T03:33:23.022Z,99.90
2023-03-27T03:34:24.804Z,99.90
2023-03-27T03:35:26.517Z,99.90
2023-03-27T03:36:30.739Z,99.90
2023-03-27T03:37:38.431Z,99.90
2023-03-27T03:38:41.186Z,99.90
2023-03-27T03:39:43.028Z,99.90
2023-03-27T03:40:45.255Z,99.90
2023-03-27T03:41:47.132Z,99.90
2023-03-27T03:42:52.176Z,99.90
2023-03-27T03:43:53.907Z,99.90
2023-03-27T03:44:55.918Z,99.90
2023-03-27T03:45:57.825Z,99.90
2023-03-27T03:46:59.544Z,99.90
2023-03-27T03:48:01.365Z,99.90
2023-03-27T03:49:04.881Z,99.90
2023-03-27T03:50:07.521Z,99.90
2023-03-27T03:51:09.259Z,99.90
2023-03-27T03:52:10.993Z,99.90
2023-03-27T03:53:14.141Z,99.90
2023-03-27T03:54:15.806Z,99.90
2023-03-27T03:55:17.661Z,99.90
2023-03-27T03:56:19.345Z,99.90
2023-03-27T03:57:21.637Z,99.90
2023-03-27T03:58:34.399Z,99.90
2023-03-27T03:59:37.067Z,99.90
2023-03-27T04:00:40.068Z,99.90
2023-03-27T04:01:42.097Z,99.90
2023-03-27T04:02:44.564Z,99.90
2023-03-27T04:03:48.311Z,99.90
2023-03-27T04:04:50.760Z,99.90
2023-03-27T04:05:52.871Z,99.90
2023-03-27T04:06:58.244Z,99.90
2023-03-27T04:08:00.444Z,99.90
2023-03-27T04:09:02.172Z,99.90
2023-03-27T04:10:04.155Z,99.90
2023-03-27T04:11:06.165Z,99.90
2023-03-27T04:12:07.955Z,99.90
2023-03-27T04:13:09.722Z,99.90
2023-03-27T04:14:11.455Z,99.90
2023-03-27T04:15:13.305Z,99.90
2023-03-27T04:16:15.565Z,99.90
2023-03-27T04:17:17.846Z,99.90
2023-03-27T04:18:19.902Z,99.90
2023-03-27T04:19:22.416Z,99.90
2023-03-27T04:20:26.552Z,99.90
2023-03-27T04:21:28.315Z,99.90
2023-03-27T04:22:30.046Z,99.90
2023-03-27T04:23:31.799Z,99.90
2023-03-27T04:24:33.602Z,99.90
2023-03-27T04:25:35.375Z,99.90
2023-03-27T04:26:37.149Z,99.90
2023-03-27T04:27:39.189Z,99.90
2023-03-27T04:28:40.969Z,99.90
2023-03-27T04:29:43.474Z,99.90
2023-03-27T04:30:50.210Z,99.90
2023-03-27T04:31:52.139Z,99.90
2023-03-27T04:32:54.660Z,99.90
2023-03-27T04:33:56.422Z,99.90
2023-03-27T04:34:58.658Z,99.90
2023-03-27T04:36:06.590Z,99.90
2023-03-27T04:37:09.418Z,99.90
2023-03-27T04:38:12.545Z,99.90
2023-03-27T04:39:16.401Z,99.90
2023-03-27T04:40:18.383Z,99.90
2023-03-27T04:41:21.227Z,99.90
2023-03-27T04:42:23.557Z,99.90
2023-03-27T04:43:26.145Z,99.90
2023-03-27T04:44:28.428Z,99.90
2023-03-27T04:45:32.265Z,99.90
2023-03-27T04:46:34.040Z,99.90
2023-03-27T04:47:39.306Z,99.90
2023-03-27T04:48:41.053Z,99.90
2023-03-27T04:49:50.732Z,99.90
2023-03-27T04:50:52.434Z,99.90
2023-03-27T04:51:54.230Z,99.90
2023-03-27T04:52:59.836Z,99.90
2023-03-27T04:54:05.005Z,99.90
2023-03-27T04:55:08.148Z,99.90
2023-03-27T04:56:11.112Z,99.90
2023-03-27T04:57:13.053Z,99.90
2023-03-27T04:58:15.541Z,99.90
2023-03-27T04:59:17.306Z,99.90
2023-03-27T05:00:19.860Z,99.90
2023-03-27T05:01:23.098Z,99.90
2023-03-27T05:02:26.468Z,99.90
2023-03-27T05:03:28.353Z,99.90
2023-03-27T05:04:32.032Z,99.90
2023-03-27T05:05:34.913Z,99.90
2023-03-27T05:06:37.489Z,99.90
2023-03-27T05:07:44.377Z,99.90
2023-03-27T05:08:46.105Z,99.90
2023-03-27T05:09:47.846Z,99.90
2023-03-27T05:10:49.669Z,99.90
2023-03-27T05:11:52.162Z,99.90
2023-03-27T05:12:56.417Z,99.90
2023-03-27T05:13:59.664Z,99.90
2023-03-27T05:15:06.016Z,99.90
2023-03-27T05:16:09.972Z,99.90
2023-03-27T05:17:12.482Z,99.90
2023-03-27T05:18:14.240Z,99.90
2023-03-27T05:19:16.414Z,99.90
2023-03-27T05:20:19.089Z,99.90
2023-03-27T05:21:20.793Z,99.90
2023-03-27T05:22:22.569Z,99.90
2023-03-27T05:23:24.640Z,99.90
2023-03-27T05:24:27.062Z,99.90
2023-03-27T05:25:32.824Z,99.90
2023-03-27T05:26:35.003Z,99.90
2023-03-27T05:27:40.145Z,99.90
2023-03-27T05:28:42.329Z,99.90
2023-03-27T05:29:46.460Z,99.90
2023-03-27T05:30:49.814Z,99.90
2023-03-27T05:31:52.144Z,99.90
2023-03-27T05:32:54.348Z,99.90
2023-03-27T05:33:56.199Z,99.90
2023-03-27T05:34:58.274Z,99.90
2023-03-27T05:36:00.089Z,99.90
2023-03-27T05:37:05.788Z,99.90
2023-03-27T05:38:08.303Z,99.90
2023-03-27T05:39:10.032Z,99.90
2023-03-27T05:40:13.732Z,99.90
2023-03-27T05:41:19.372Z,99.90
2023-03-27T05:42:21.031Z,99.90
2023-03-27T05:43:22.780Z,99.90
2023-03-27T05:44:25.571Z,99.90
2023-03-27T05:45:27.947Z,99.90
2023-03-27T05:46:29.670Z,99.90
2023-03-27T05:47:31.443Z,99.90
2023-03-27T05:48:33.553Z,99.90
2023-03-27T05:49:35.289Z,99.90
2023-03-27T05:50:37.358Z,99.90
2023-03-27T05:51:39.119Z,99.90
2023-03-27T05:53:05.123Z,99.90
2023-03-27T05:54:06.998Z,99.90
2023-03-27T05:55:09.569Z,99.90
2023-03-27T05:56:11.436Z,99.90
2023-03-27T05:57:13.478Z,99.90
2023-03-27T05:58:20.155Z,99.90
2023-03-27T05:59:23.487Z,99.90
2023-03-27T06:00:27.365Z,99.90
2023-03-27T06:01:29.303Z,99.90
2023-03-27T06:02:31.294Z,99.90
2023-03-27T06:03:37.054Z,99.90
2023-03-27T06:04:39.204Z,99.90
2023-03-27T06:05:41.891Z,99.90
2023-03-27T06:06:46.783Z,99.90
2023-03-27T06:07:48.783Z,99.90
2023-03-27T06:08:50.698Z,99.90
2023-03-27T06:09:52.385Z,99.90
2023-03-27T06:10:54.303Z,99.90
2023-03-27T06:11:56.197Z,99.90
2023-03-27T06:13:03.870Z,99.90
2023-03-27T06:14:05.726Z,99.90
2023-03-27T06:15:09.429Z,99.90
2023-03-27T06:16:11.738Z,99.90
2023-03-27T06:17:13.965Z,99.90
2023-03-27T06:18:16.080Z,99.90
2023-03-27T06:19:17.873Z,99.90
2023-03-27T06:20:21.234Z,99.90
2023-03-27T06:21:23.663Z,99.90
2023-03-27T06:22:26.775Z,99.90
2023-03-27T06:23:28.594Z,99.90
2023-03-27T06:24:30.438Z,99.90
2023-03-27T06:25:36.474Z,99.90
2023-03-27T06:26:39.303Z,99.90
2023-03-27T06:27:46.534Z,99.90
2023-03-27T06:28:48.649Z,99.90
2023-03-27T06:29:50.392Z,99.90
2023-03-27T06:30:52.296Z,99.90
2023-03-27T06:31:54.364Z,99.90
2023-03-27T06:32:58.475Z,99.90
2023-03-27T06:34:00.319Z,99.90
2023-03-27T06:35:02.890Z,99.90
2023-03-27T06:36:05.448Z,99.90
2023-03-27T06:37:07.181Z,99.90
2023-03-27T06:38:09.129Z,99.90
2023-03-27T06:39:11.131Z,99.90
2023-03-27T06:40:23.795Z,99.90
2023-03-27T06:41:25.522Z,99.90
2023-03-27T06:42:27.230Z,99.90
2023-03-27T06:43:29.345Z,99.90
2023-03-27T06:44:32.021Z,99.90
2023-03-27T06:45:42.934Z,99.90
2023-03-27T06:46:45.807Z,99.90
2023-03-27T06:48:15.989Z,99.90
2023-03-27T06:49:21.294Z,99.90
2023-03-27T06:50:25.226Z,99.90
2023-03-27T06:51:27.056Z,99.90
2023-03-27T06:52:28.803Z,99.90
2023-03-27T06:53:33.694Z,99.90
2023-03-27T06:54:38.457Z,99.90
2023-03-27T06:55:40.462Z,99.90
2023-03-27T06:56:44.279Z,99.90
2023-03-27T06:57:51.627Z,99.90
2023-03-27T06:58:53.323Z,99.90
2023-03-27T06:59:55.107Z,99.90
2023-03-27T07:00:56.987Z,99.90
2023-03-27T07:01:58.768Z,99.90
2023-03-27T07:03:02.886Z,99.90
2023-03-27T07:04:04.897Z,99.90
2023-03-27T07:05:08.296Z,99.90
2023-03-27T07:06:10.140Z,99.90
2023-03-27T07:07:12.310Z,99.90
2023-03-27T07:08:23.643Z,99.90
2023-03-27T07:09:26.843Z,99.90
2023-03-27T07:10:29.012Z,99.90
2023-03-27T07:11:32.160Z,99.90
2023-03-27T07:12:34.942Z,99.90
2023-03-27T07:13:37.296Z,99.90
2023-03-27T07:14:39.047Z,99.90
2023-03-27T07:15:41.143Z,99.90
2023-03-27T07:16:42.870Z,99.90
2023-03-27T07:17:49.025Z,99.90
2023-03-27T07:18:51.243Z,99.90
2023-03-27T07:19:53.872Z,99.90
2023-03-27T07:20:56.128Z,99.90
2023-03-27T07:21:58.087Z,99.90
2023-03-27T07:23:00.842Z,99.90
2023-03-27T07:24:02.665Z,99.90
2023-03-27T07:25:05.366Z,99.90
2023-03-27T07:26:07.418Z,99.90
2023-03-27T07:27:09.481Z,99.90
2023-03-27T07:28:14.989Z,99.90
2023-03-27T07:29:16.994Z,99.90
2023-03-27T07:30:18.960Z,99.90
2023-03-27T07:31:35.193Z,99.90
2023-03-27T07:32:44.716Z,99.90
2023-03-27T07:33:46.789Z,99.90
2023-03-27T07:34:48.825Z,99.90
2023-03-27T07:35:50.705Z,99.90
2023-03-27T07:36:52.458Z,99.90
2023-03-27T07:37:54.668Z,99.90
2023-03-27T07:38:57.012Z,99.90
2023-03-27T07:39:58.686Z,99.90
2023-03-27T07:41:06.621Z,99.90
2023-03-27T07:42:11.581Z,99.90
2023-03-27T07:43:14.141Z,99.90
2023-03-27T07:44:15.923Z,99.90
2023-03-27T07:45:18.400Z,99.90
2023-03-27T07:46:20.176Z,99.90
2023-03-27T07:47:22.109Z,99.90
2023-03-27T07:48:23.901Z,99.90
2023-03-27T07:49:38.815Z,99.90
2023-03-27T07:50:42.337Z,99.90
2023-03-27T07:51:44.640Z,99.90
2023-03-27T07:52:46.679Z,99.90
2023-03-27T07:53:49.239Z,99.90
2023-03-27T07:54:51.565Z,99.90
2023-03-27T07:55:54.509Z,99.90
2023-03-27T07:56:57.129Z,99.90
2023-03-27T07:58:02.732Z,99.90
2023-03-27T07:59:05.324Z,99.90
2023-03-27T08:00:11.646Z,99.90
2023-03-27T08:01:13.620Z,99.90
2023-03-27T08:02:15.960Z,99.90
2023-03-27T08:03:19.029Z,99.90
2023-03-27T08:04:20.952Z,99.90
2023-03-27T08:05:22.940Z,99.90
2023-03-27T08:06:26.077Z,99.90
2023-03-27T08:07:27.825Z,99.90
2023-03-27T08:08:29.632Z,99.90
2023-03-27T08:09:32.016Z,99.90
2023-03-27T08:10:33.972Z,99.90
2023-03-27T08:11:37.511Z,99.90
2023-03-27T08:12:39.277Z,99.90
2023-03-27T08:13:41.127Z,99.90
2023-03-27T08:14:45.784Z,99.90
2023-03-27T08:15:47.915Z,99.90
2023-03-27T08:16:49.660Z,99.90
2023-03-27T08:17:54.651Z,99.90
2023-03-27T08:18:57.770Z,99.90
2023-03-27T08:20:02.153Z,99.90
2023-03-27T08:21:05.890Z,99.90
2023-03-27T08:22:07.894Z,99.90
2023-03-27T08:23:09.733Z,99.90
2023-03-27T08:24:11.472Z,99.90
2023-03-27T08:25:13.745Z,99.90
2023-03-27T08:26:15.974Z,99.90
2023-03-27T08:27:18.265Z,99.90
2023-03-27T08:28:20.270Z,99.90
2023-03-27T08:29:22.008Z,99.90
2023-03-27T08:30:23.955Z,99.90
2023-03-27T08:31:27.885Z,99.90
2023-03-27T08:32:29.689Z,99.90
2023-03-27T08:33:31.506Z,99.90
2023-03-27T08:34:33.731Z,99.90
2023-03-27T08:35:35.823Z,99.90
2023-03-27T08:36:38.348Z,99.90
2023-03-27T08:37:41.313Z,99.90
2023-03-27T08:38:43.432Z,99.90
2023-03-27T08:39:46.844Z,99.90
2023-03-27T08:40:50.725Z,99.90
2023-03-27T08:41:57.922Z,99.90
2023-03-27T08:43:13.111Z,99.90
2023-03-27T08:44:17.788Z,99.90
2023-03-27T08:45:34.014Z,99.90
2023-03-27T08:47:02.945Z,98.60
2023-03-27T08:48:27.372Z,99.90
2023-03-27T08:49:38.883Z,95.60
2023-03-27T08:50:43.110Z,95.90
2023-03-27T08:51:53.505Z,99.20
2023-03-27T08:52:55.397Z,94.50
2023-03-27T08:53:59.899Z,93.70
2023-03-27T08:55:14.313Z,99.90
2023-03-27T08:56:17.246Z,99.90
2023-03-27T08:57:23.443Z,95.50
2023-03-27T08:58:25.435Z,92.90
2023-03-27T08:59:31.570Z,93.10
2023-03-27T09:00:40.431Z,90.80
2023-03-27T09:01:58.087Z,95.60
2023-03-27T09:03:27.183Z,97.20
2023-03-27T09:04:32.237Z,93.50
2023-03-27T09:05:47.949Z,97.40
2023-03-27T09:06:59.347Z,90.30
2023-03-27T09:08:15.636Z,91.60
2023-03-27T09:09:46.407Z,96.20
2023-03-27T09:10:52.180Z,94.10
2023-03-27T09:12:37.451Z,91.70
2023-03-27T09:13:48.203Z,94.30
2023-03-27T09:15:02.633Z,94.00
2023-03-27T09:16:12.919Z,93.70
2023-03-27T09:17:25.129Z,91.60
2023-03-27T09:18:34.273Z,89.60
2023-03-27T09:19:42.226Z,91.70
2023-03-27T09:20:47.540Z,86.00
2023-03-27T09:22:02.209Z,87.30
2023-03-27T09:23:21.068Z,87.20
2023-03-27T09:24:41.704Z,85.40
2023-03-27T09:25:47.688Z,84.40
2023-03-27T09:27:01.218Z,88.00
2023-03-27T09:28:19.385Z,82.50
2023-03-27T09:29:31.291Z,82.90
2023-03-27T09:30:34.527Z,81.60
2023-03-27T09:31:45.136Z,82.50
2023-03-27T09:32:48.637Z,88.70
2023-03-27T09:33:50.907Z,81.10
2023-03-27T09:34:52.654Z,84.90
2023-03-27T09:35:55.020Z,84.10
2023-03-27T09:36:59.278Z,86.30
2023-03-27T09:38:04.037Z,87.00
2023-03-27T09:39:08.339Z,84.10
2023-03-27T09:40:25.976Z,81.90
2023-03-27T09:41:34.551Z,85.60
2023-03-27T09:42:41.423Z,83.70
2023-03-27T09:43:51.559Z,85.30
2023-03-27T09:44:56.909Z,86.70
2023-03-27T09:45:59.378Z,88.70
2023-03-27T09:47:07.042Z,85.70
2023-03-27T09:48:36.349Z,88.00
2023-03-27T09:49:40.745Z,87.90
2023-03-27T09:50:47.215Z,78.70
2023-03-27T09:51:51.646Z,81.00
2023-03-27T09:53:09.836Z,81.50
2023-03-27T09:54:14.340Z,79.90
2023-03-27T09:55:30.987Z,81.20
2023-03-27T09:56:39.869Z,76.40
2023-03-27T09:57:41.723Z,79.60
2023-03-27T09:58:46.217Z,80.70
2023-03-27T09:59:59.986Z,80.50
2023-03-27T10:01:20.437Z,75.40
2023-03-27T10:02:25.978Z,79.50
2023-03-27T10:03:37.872Z,74.30
2023-03-27T10:04:40.237Z,77.30
2023-03-27T10:05:42.728Z,76.90
2023-03-27T10:06:59.545Z,74.30
2023-03-27T10:08:01.939Z,80.20
2023-03-27T10:09:20.994Z,74.80
2023-03-27T10:10:24.956Z,79.10
2023-03-27T10:11:36.298Z,77.50
2023-03-27T10:12:39.578Z,77.40
2023-03-27T10:13:46.681Z,73.70
2023-03-27T10:14:52.671Z,74.90
2023-03-27T10:16:05.268Z,76.40
2023-03-27T10:17:12.773Z,71.50
2023-03-27T10:18:23.441Z,69.50
2023-03-27T10:19:25.126Z,70.90
2023-03-27T10:20:27.492Z,73.80
2023-03-27T10:21:33.453Z,73.30
2023-03-27T10:22:39.064Z,75.60
2023-03-27T10:23:46.748Z,70.90
2023-03-27T10:24:48.727Z,75.40
2023-03-27T10:25:51.972Z,71.80
2023-03-27T10:26:54.534Z,67.30
2023-03-27T10:28:17.955Z,67.80
2023-03-27T10:29:45.946Z,69.80
2023-03-27T10:31:00.002Z,72.30
2023-03-27T10:32:05.115Z,72.80
2023-03-27T10:33:07.590Z,69.20
2023-03-27T10:34:29.105Z,70.80
2023-03-27T10:35:43.861Z,71.10
2023-03-27T10:36:47.128Z,69.20
2023-03-27T10:37:51.293Z,68.30
2023-03-27T10:39:03.674Z,65.90
2023-03-27T10:40:09.190Z,65.30
2023-03-27T10:41:28.691Z,64.90
2023-03-27T10:42:32.377Z,67.40
2023-03-27T10:43:40.314Z,64.90
2023-03-27T10:44:45.548Z,67.60
2023-03-27T10:45:52.599Z,68.30
2023-03-27T10:46:54.982Z,67.30
2023-03-27T10:48:01.876Z,64.50
2023-03-27T10:49:06.382Z,66.90
2023-03-27T10:50:23.712Z,67.60
2023-03-27T10:51:43.042Z,71.90
2023-03-27T10:52:57.381Z,68.10
2023-03-27T10:54:07.874Z,67.20
2023-03-27T10:55:12.784Z,64.40
2023-03-27T10:56:24.864Z,60.80
2023-03-27T10:57:34.134Z,61.40
2023-03-27T10:59:04.097Z,64.00
2023-03-27T11:00:22.634Z,62.50
2023-03-27T11:01:32.560Z,65.60
2023-03-27T11:02:46.571Z,65.70
2023-03-27T11:04:03.617Z,64.30
2023-03-27T11:05:12.060Z,64.40
2023-03-27T11:06:17.178Z,67.50
2023-03-27T11:07:26.906Z,62.70
2023-03-27T11:08:42.928Z,67.60
2023-03-27T11:09:57.771Z,66.00
2023-03-27T11:11:22.400Z,63.90
2023-03-27T11:12:27.449Z,59.70
2023-03-27T11:13:33.407Z,59.70
2023-03-27T11:15:10.160Z,64.50
2023-03-27T11:16:25.983Z,64.50
2023-03-27T11:17:41.005Z,64.80
2023-03-27T11:18:49.084Z,64.20
2023-03-27T11:20:00.256Z,64.70
2023-03-27T11:21:12.759Z,61.00
2023-03-27T11:22:26.370Z,59.20
2023-03-27T11:23:36.443Z,59.90
2023-03-27T11:25:05.825Z,59.10
2023-03-27T11:26:12.850Z,61.80
2023-03-27T11:27:28.064Z,62.20
2023-03-27T11:28:55.874Z,62.20
2023-03-27T11:30:14.826Z,62.50
2023-03-27T11:31:23.282Z,61.30
2023-03-27T11:32:52.830Z,62.50
2023-03-27T11:34:31.197Z,58.70
2023-03-27T11:35:45.865Z,60.60
2023-03-27T11:37:11.934Z,61.00
2023-03-27T11:38:23.403Z,59.90
2023-03-27T11:39:58.577Z,59.20
2023-03-27T11:41:00.898Z,59.30
2023-03-27T11:42:31.097Z,59.30
2023-03-27T11:43:35.043Z,58.60
2023-03-27T11:44:37.080Z,61.70
2023-03-27T11:45:44.597Z,60.00
2023-03-27T11:47:09.427Z,59.30
2023-03-27T11:48:33.100Z,62.50
2023-03-27T11:49:37.697Z,64.70
2023-03-27T11:50:50.490Z,60.30
2023-03-27T11:52:06.968Z,61.90
2023-03-27T11:53:08.941Z,60.50
2023-03-27T11:54:33.298Z,61.70
2023-03-27T11:55:43.801Z,63.50
2023-03-27T11:56:57.938Z,66.50
2023-03-27T11:58:27.000Z,68.70
2023-03-27T12:00:06.721Z,66.40
2023-03-27T12:01:14.455Z,65.70
2023-03-27T12:02:24.206Z,63.50
2023-03-27T12:03:36.733Z,63.30
2023-03-27T12:04:43.400Z,65.10
2023-03-27T12:06:17.610Z,62.60
2023-03-27T12:08:02.103Z,63.00
2023-03-27T12:09:03.818Z,60.00
2023-03-27T12:10:11.961Z,62.50
2023-03-27T12:11:13.891Z,61.20
2023-03-27T12:12:53.117Z,60.50
2023-03-27T12:14:40.174Z,60.80
2023-03-27T12:16:02.535Z,57.60
2023-03-27T12:17:13.408Z,55.80
2023-03-27T12:18:41.248Z,57.50
2023-03-27T12:19:55.434Z,55.80
2023-03-27T12:21:25.597Z,55.50
2023-03-27T12:22:50.537Z,57.50
2023-03-27T12:24:14.260Z,58.40
2023-03-27T12:25:37.779Z,57.80
2023-03-27T12:27:24.506Z,58.60
2023-03-27T12:28:42.944Z,56.60
2023-03-27T12:30:26.549Z,55.60
2023-03-27T12:31:45.599Z,53.70
2023-03-27T12:33:21.510Z,54.60
2023-03-27T12:34:53.304Z,54.20
2023-03-27T12:35:59.571Z,52.50
2023-03-27T12:37:04.338Z,52.00
2023-03-27T12:38:34.889Z,52.40
2023-03-27T12:39:48.313Z,51.00
2023-03-27T12:41:02.884Z,52.70
2023-03-27T12:42:14.024Z,51.90
2023-03-27T12:43:22.005Z,51.10
2023-03-27T12:44:30.423Z,51.70
2023-03-27T12:46:40.845Z,52.40
2023-03-27T12:48:16.553Z,51.20
2023-03-27T12:49:21.045Z,50.60
2023-03-27T12:50:27.350Z,53.00
2023-03-27T12:51:48.739Z,52.70
2023-03-27T12:52:51.929Z,52.80
2023-03-27T12:53:56.464Z,52.60
2023-03-27T12:55:34.984Z,53.80
2023-03-27T12:56:37.943Z,55.20
2023-03-27T12:57:44.597Z,56.30
2023-03-27T12:58:54.636Z,55.40
2023-03-27T12:59:59.359Z,54.70
2023-03-27T13:01:02.677Z,55.90
2023-03-27T13:02:04.490Z,54.20
2023-03-27T13:03:27.572Z,54.20
2023-03-27T13:04:51.992Z,55.10
2023-03-27T13:05:59.818Z,56.70
2023-03-27T13:07:07.800Z,54.50
2023-03-27T13:08:28.163Z,54.00
2023-03-27T13:10:07.403Z,54.10
2023-03-27T13:11:23.644Z,55.60
2023-03-27T13:12:51.840Z,55.90
2023-03-27T13:14:10.109Z,55.40
2023-03-27T13:15:27.312Z,53.80
2023-03-27T13:16:47.449Z,53.70
2023-03-27T13:18:09.420Z,55.60
2023-03-27T13:38:00.831Z,65.40
2023-03-27T13:39:07.664Z,68.80
2023-03-27T13:40:23.362Z,75.10
2023-03-27T13:41:45.666Z,78.20
2023-03-27T13:42:52.132Z,94.40
2023-03-27T13:43:55.356Z,92.10
2023-03-27T13:45:09.289Z,99.90
2023-03-27T13:46:19.096Z,99.90
2023-03-27T13:47:33.500Z,99.90
2023-03-27T13:48:45.137Z,99.90
2023-03-27T13:49:58.919Z,99.90
2023-03-27T13:51:16.887Z,99.90
2023-03-27T13:52:48.275Z,99.90
2023-03-27T13:54:08.686Z,99.90
2023-03-27T13:55:16.943Z,99.90
2023-03-27T13:56:49.755Z,99.90
2023-03-27T13:58:08.727Z,99.90
2023-03-27T13:59:27.863Z,99.90
2023-03-27T14:00:49.191Z,99.90
2023-03-27T14:02:09.564Z,99.90
2023-03-27T14:03:23.531Z,99.90
2023-03-27T14:05:04.664Z,99.90
2023-03-27T14:06:09.404Z,99.90
2023-03-27T14:07:38.021Z,99.90
2023-03-27T14:09:10.819Z,99.90
2023-03-27T14:10:32.823Z,99.90
2023-03-27T14:11:59.994Z,99.90
2023-03-27T14:13:26.469Z,99.90
2023-03-27T14:14:44.394Z,99.90
2023-03-27T14:16:06.168Z,99.90
2023-03-27T14:17:27.770Z,99.90
2023-03-27T14:18:44.865Z,99.90
2023-03-27T14:20:11.889Z,99.90
2023-03-27T14:21:27.665Z,99.90
2023-03-27T14:22:48.907Z,99.90
2023-03-27T14:23:58.852Z,99.90
2023-03-27T14:25:11.340Z,99.90
2023-03-27T14:26:20.253Z,99.90
2023-03-27T14:27:22.956Z,99.90
2023-03-27T14:28:34.947Z,99.90
2023-03-27T14:29:36.659Z,99.90
2023-03-27T14:30:47.236Z,99.90
2023-03-27T14:31:50.838Z,99.90
2023-03-27T14:32:55.370Z,99.90
2023-03-27T14:34:01.761Z,99.90
2023-03-27T14:35:06.447Z,99.90
2023-03-27T14:36:16.489Z,99.90
2023-03-27T14:37:31.399Z,99.90
2023-03-27T14:38:35.973Z,99.90
2023-03-27T14:39:38.326Z,99.90
2023-03-27T14:40:47.544Z,99.90
2023-03-27T14:41:53.253Z,99.90
2023-03-27T14:42:56.994Z,99.90
2023-03-27T14:44:03.733Z,99.90
2023-03-27T14:45:16.164Z,99.90
2023-03-27T14:46:21.414Z,99.90
2023-03-27T14:47:23.332Z,99.70
2023-03-27T14:48:30.462Z,99.00
2023-03-27T14:49:37.607Z,99.90
2023-03-27T14:50:39.708Z,99.90
2023-03-27T14:51:47.510Z,99.90
2023-03-27T14:52:53.561Z,99.90
2023-03-27T14:54:02.325Z,94.50
2023-03-27T14:55:06.189Z,97.20
2023-03-27T14:56:24.654Z,99.90
2023-03-27T14:57:27.302Z,99.90
2023-03-27T14:58:29.120Z,99.90
2023-03-27T14:59:34.929Z,99.90
2023-03-27T15:00:39.524Z,99.90
2023-03-27T15:01:42.100Z,99.50
2023-03-27T15:02:45.915Z,97.10
2023-03-27T15:03:48.941Z,97.60
2023-03-27T15:04:50.674Z,96.00